Time;durP1;ratioP1;P1;durP2;ratioP2;P2;SDS_P1;SDS_P2;PMS_P1;PMS_P2;Temp;Humidity;BMP_temperature;BMP_pressure;BME280_temperature;BME280_humidity;BME280_pressure;Samples;Min_cycle;Max_cycle;Signal;HPM_P1;HPM_P2
2022/12/04 00:02:15;;;;;;;49.08;5.10;;;16.00;99.90;;;;;;5073240;28;20293;-76
2022/12/04 00:04:41;;;;;;;42.60;4.90;;;16.00;99.90;;;;;;5073746;28;20025;-71
2022/12/04 00:07:08;;;;;;;54.75;4.82;;;16.10;99.90;;;;;;5093670;28;20085;-74
2022/12/04 00:09:36;;;;;;;38.63;4.68;;;16.10;99.90;;;;;;5093937;28;20024;-72
2022/12/04 00:12:03;;;;;;;41.55;5.28;;;16.10;99.90;;;;;;5093449;28;20024;-75
2022/12/04 00:14:29;;;;;;;35.13;4.57;;;16.10;99.90;;;;;;5093648;28;20024;-75
2022/12/04 00:16:55;;;;;;;37.92;4.22;;;16.00;99.90;;;;;;5093581;28;20066;-74
2022/12/04 00:19:26;;;;;;;47.65;4.35;;;16.00;99.90;;;;;;5093827;28;20048;-74
2022/12/04 00:21:52;;;;;;;51.92;5.20;;;16.10;99.90;;;;;;5093206;28;20081;-74
2022/12/04 00:24:23;;;;;;;47.40;5.65;;;16.10;99.90;;;;;;5093095;28;20019;-74
2022/12/04 00:26:51;;;;;;;37.55;4.63;;;16.10;99.90;;;;;;5093684;28;20141;-73
2022/12/04 00:29:18;;;;;;;40.42;4.82;;;16.20;99.90;;;;;;5093078;28;20020;-74
2022/12/04 00:31:44;;;;;;;42.58;5.55;;;16.10;99.90;;;;;;5092041;28;20032;-74
2022/12/04 00:34:12;;;;;;;46.28;5.85;;;16.10;99.90;;;;;;5093073;28;20035;-74
2022/12/04 00:36:38;;;;;;;60.45;5.07;;;16.20;99.90;;;;;;5093654;28;20028;-74
2022/12/04 00:39:06;;;;;;;40.95;4.22;;;16.10;99.90;;;;;;5093526;28;20440;-74
2022/12/04 00:41:33;;;;;;;52.80;5.53;;;16.10;99.90;;;;;;5091794;28;20040;-74
2022/12/04 00:44:03;;;;;;;44.17;5.03;;;16.20;99.90;;;;;;5092848;28;20516;-73
2022/12/04 00:46:31;;;;;;;41.63;5.07;;;16.10;99.90;;;;;;5092548;28;20040;-73
2022/12/04 00:49:00;;;;;;;48.72;5.93;;;16.10;99.90;;;;;;5092807;28;20030;-74
2022/12/04 00:51:29;;;;;;;60.30;6.10;;;16.10;99.90;;;;;;5092752;28;20039;-74
2022/12/04 00:53:58;;;;;;;60.78;5.63;;;16.10;99.90;;;;;;5092420;28;20147;-74
2022/12/04 00:56:27;;;;;;;45.42;6.05;;;16.10;99.90;;;;;;5092399;28;20035;-74
2022/12/04 00:58:55;;;;;;;60.67;6.72;;;16.10;99.90;;;;;;5092794;28;20024;-74
2022/12/04 01:01:23;;;;;;;42.28;4.55;;;16.20;99.90;;;;;;5092597;28;20127;-74
2022/12/04 01:03:50;;;;;;;52.75;6.30;;;16.10;99.90;;;;;;5092899;28;20027;-73
2022/12/04 01:06:27;;;;;;;47.65;5.65;;;16.10;99.90;;;;;;5092586;28;20020;-74
2022/12/04 01:08:55;;;;;;;61.63;8.05;;;16.10;99.90;;;;;;5092462;28;20028;-74
2022/12/04 01:11:24;;;;;;;50.35;8.30;;;16.10;99.90;;;;;;5092229;28;20030;-73
2022/12/04 01:13:53;;;;;;;56.15;7.07;;;16.10;99.90;;;;;;5090803;28;20035;-74
2022/12/04 01:16:26;;;;;;;44.38;6.38;;;16.20;99.90;;;;;;5092208;28;20084;-74
2022/12/04 01:18:55;;;;;;;50.90;6.70;;;16.20;99.90;;;;;;5092587;28;20078;-74
2022/12/04 01:21:22;;;;;;;52.95;5.93;;;16.20;99.90;;;;;;5091985;28;20024;-74
2022/12/04 01:23:50;;;;;;;45.05;4.85;;;16.10;99.90;;;;;;5091973;28;20028;-72
2022/12/04 01:26:20;;;;;;;55.28;5.90;;;16.20;99.90;;;;;;5091697;28;20031;-73
2022/12/04 01:28:46;;;;;;;52.97;5.38;;;16.20;99.90;;;;;;5086194;28;20040;-73
2022/12/04 01:31:18;;;;;;;49.47;5.40;;;16.10;99.90;;;;;;5103801;28;20017;-73
2022/12/04 01:33:47;;;;;;;46.15;4.75;;;16.20;99.90;;;;;;5071579;28;20033;-72
2022/12/04 01:36:16;;;;;;;58.17;5.50;;;16.10;99.90;;;;;;5071343;28;20063;-72
2022/12/04 01:38:44;;;;;;;48.40;5.30;;;16.10;99.90;;;;;;5072013;28;20025;-73
2022/12/04 01:41:12;;;;;;;44.53;5.22;;;16.10;99.90;;;;;;5071935;28;20055;-73
2022/12/04 01:43:45;;;;;;;54.20;5.03;;;16.00;99.90;;;;;;5103648;28;20387;-72
2022/12/04 01:46:11;;;;;;;55.28;5.13;;;16.00;99.90;;;;;;5071747;28;20082;-73
2022/12/04 01:48:45;;;;;;;49.75;5.38;;;16.00;99.90;;;;;;5071766;28;20112;-74
2022/12/04 01:51:40;;;;;;;54.40;5.13;;;16.00;99.90;;;;;;5071432;28;20096;-73
2022/12/04 01:54:20;;;;;;;41.47;5.78;;;16.00;99.90;;;;;;5071496;28;20056;-74
2022/12/04 01:56:57;;;;;;;48.88;5.20;;;15.90;99.90;;;;;;5103899;28;20134;-73
2022/12/04 01:59:29;;;;;;;41.22;4.70;;;15.90;99.90;;;;;;5071285;28;20077;-73
2022/12/04 02:02:01;;;;;;;52.22;5.40;;;15.90;99.90;;;;;;5070350;28;20035;-73
2022/12/04 02:04:30;;;;;;;46.05;4.55;;;16.00;99.90;;;;;;5071193;28;20029;-74
2022/12/04 02:06:56;;;;;;;52.83;5.00;;;15.90;99.90;;;;;;5086099;28;20507;-73
2022/12/04 02:09:22;;;;;;;50.50;6.28;;;16.00;99.90;;;;;;5071206;28;20028;-73
2022/12/04 02:12:00;;;;;;;56.67;6.22;;;16.00;99.90;;;;;;5071128;28;20021;-72
2022/12/04 02:14:43;;;;;;;42.83;6.03;;;16.10;99.90;;;;;;5071192;28;20381;-73
2022/12/04 02:17:56;;;;;;;52.30;5.40;;;16.00;99.90;;;;;;5071252;28;20475;-74
2022/12/04 02:20:31;;;;;;;50.33;6.03;;;16.10;99.90;;;;;;5071340;28;20429;-73
2022/12/04 02:23:19;;;;;;;36.65;5.05;;;16.10;99.90;;;;;;5074751;28;20021;-73
2022/12/04 02:26:30;;;;;;;55.92;6.03;;;16.10;99.90;;;;;;5107084;28;20076;-73
2022/12/04 02:29:14;;;;;;;56.38;5.93;;;16.10;99.90;;;;;;5075088;28;20017;-73
2022/12/04 02:31:52;;;;;;;50.70;6.05;;;16.20;99.90;;;;;;5073668;28;20032;-73
2022/12/04 02:35:04;;;;;;;59.20;6.75;;;16.10;99.90;;;;;;5074683;28;20062;-73
2022/12/04 02:37:42;;;;;;;58.65;6.25;;;16.10;99.90;;;;;;5012783;28;20076;-73
2022/12/04 02:40:17;;;;;;;49.13;5.57;;;16.10;99.90;;;;;;5013117;28;20117;-73
2022/12/04 02:42:57;;;;;;;38.97;5.57;;;16.10;99.90;;;;;;5011930;28;20491;-73
2022/12/04 02:45:31;;;;;;;50.63;5.20;;;16.10;99.90;;;;;;5012890;28;20065;-73
2022/12/04 02:48:01;;;;;;;46.20;5.05;;;16.10;99.90;;;;;;5012950;28;20203;-74
2022/12/04 02:50:29;;;;;;;49.95;5.70;;;16.10;99.90;;;;;;5012777;28;20422;-73
2022/12/04 02:53:04;;;;;;;49.78;6.53;;;16.10;99.90;;;;;;5012559;28;20121;-74
2022/12/04 02:55:56;;;;;;;60.95;5.53;;;16.00;99.90;;;;;;5012557;28;20042;-73
2022/12/04 02:58:34;;;;;;;61.05;5.95;;;16.00;99.90;;;;;;5012875;28;20338;-73
2022/12/04 03:01:20;;;;;;;38.75;5.00;;;16.00;99.90;;;;;;5012499;28;20385;-73
2022/12/04 03:03:58;;;;;;;47.30;4.72;;;15.90;99.90;;;;;;5012498;28;20401;-73
2022/12/04 03:06:49;;;;;;;50.67;5.45;;;16.00;99.90;;;;;;5012723;28;20044;-73
2022/12/04 03:09:36;;;;;;;56.55;6.57;;;15.80;99.90;;;;;;5012899;28;20061;-73
2022/12/04 03:12:28;;;;;;;47.00;5.28;;;15.80;99.90;;;;;;5023156;28;20041;-73
2022/12/04 03:15:00;;;;;;;44.10;5.50;;;15.80;99.90;;;;;;5074292;28;20391;-73
2022/12/04 03:17:52;;;;;;;44.47;4.80;;;15.80;99.90;;;;;;5074562;28;20028;-73
2022/12/04 03:20:22;;;;;;;51.33;5.15;;;15.70;99.90;;;;;;5074173;28;20075;-72
2022/12/04 03:22:56;;;;;;;54.03;6.38;;;15.70;99.90;;;;;;5074022;28;20065;-73
2022/12/04 03:25:34;;;;;;;50.50;5.47;;;15.70;99.90;;;;;;5073895;28;20519;-73
2022/12/04 03:28:02;;;;;;;;;;;15.70;99.90;;;;;;5074809;28;20025;-73
2022/12/04 03:30:37;;;;;;;38.03;5.55;;;15.60;99.90;;;;;;5073975;28;19905;-73
2022/12/04 03:33:18;;;;;;;40.77;5.60;;;15.60;99.90;;;;;;5073816;28;20021;-73
2022/12/04 03:35:50;;;;;;;48.20;5.32;;;15.60;99.90;;;;;;5073514;28;20432;-73
2022/12/04 03:38:38;;;;;;;38.30;5.57;;;15.60;99.90;;;;;;5074137;28;20187;-73
2022/12/04 03:41:38;;;;;;;47.15;5.38;;;15.60;99.90;;;;;;5071092;28;20512;-73
2022/12/04 03:44:16;;;;;;;47.05;5.82;;;15.60;99.90;;;;;;5074123;28;20060;-73
2022/12/04 03:47:14;;;;;;;46.00;5.82;;;15.60;99.90;;;;;;5073832;28;20028;-73
2022/12/04 03:49:57;;;;;;;56.90;5.53;;;15.50;99.90;;;;;;5072101;28;20017;-73
2022/12/04 03:52:49;;;;;;;42.80;5.57;;;15.40;99.90;;;;;;5073430;28;20036;-74
2022/12/04 03:55:45;;;;;;;49.92;6.32;;;15.50;99.90;;;;;;5064967;28;20408;-74
2022/12/04 03:58:33;;;;;;;40.50;4.45;;;15.40;99.90;;;;;;5070251;28;20115;-73
2022/12/04 04:01:02;;;;;;;37.47;4.80;;;15.40;99.90;;;;;;5073427;28;20086;-72
2022/12/04 04:03:51;;;;;;;43.83;6.63;;;15.40;99.90;;;;;;5073053;28;20036;-73
2022/12/04 04:06:42;;;;;;;46.97;5.32;;;15.20;99.90;;;;;;5073021;28;20025;-73
2022/12/04 04:09:15;;;;;;;48.00;5.15;;;15.30;99.90;;;;;;5072311;28;20046;-73
2022/12/04 04:11:47;;;;;;;39.42;5.68;;;15.20;99.90;;;;;;5073536;28;20520;-73
2022/12/04 04:24:13;;;;;;;52.90;6.18;;;15.10;99.90;;;;;;5073538;28;20683;-73
2022/12/04 04:26:36;;;;;;;48.63;5.93;;;15.00;99.90;;;;;;5093869;28;20474;-69
2022/12/04 04:29:03;;;;;;;47.40;6.80;;;15.00;99.90;;;;;;5084830;28;20119;-68
2022/12/04 04:31:37;;;;;;;38.83;6.80;;;14.90;99.90;;;;;;5073215;28;20107;-69
2022/12/04 04:34:24;;;;;;;35.63;5.70;;;14.90;99.90;;;;;;5072698;28;20078;-73
2022/12/04 04:37:18;;;;;;;49.92;6.65;;;14.90;99.90;;;;;;5073095;28;20028;-72
2022/12/04 04:40:04;;;;;;;44.03;6.38;;;14.90;99.90;;;;;;5073004;28;20027;-72
2022/12/04 04:42:48;;;;;;;48.55;6.45;;;14.90;99.90;;;;;;5072438;28;20111;-73
2022/12/04 04:45:17;;;;;;;41.25;6.10;;;14.90;99.90;;;;;;5071725;28;20024;-73
2022/12/04 04:47:49;;;;;;;44.15;5.85;;;14.90;99.90;;;;;;5072564;28;20020;-73
2022/12/04 04:50:17;;;;;;;41.33;5.93;;;14.90;99.90;;;;;;5083462;28;20498;-73
2022/12/04 04:52:49;;;;;;;39.80;5.28;;;14.90;99.90;;;;;;5089774;28;20497;-72
2022/12/04 04:55:19;;;;;;;50.55;6.93;;;15.00;99.90;;;;;;5085125;28;20037;-67
2022/12/04 04:57:48;;;;;;;49.30;6.13;;;15.00;99.90;;;;;;5091060;28;20795;-67
2022/12/04 05:00:20;;;;;;;34.83;6.80;;;15.10;99.90;;;;;;5091305;28;20024;-68
2022/12/04 05:02:49;;;;;;;42.08;5.70;;;15.10;99.90;;;;;;5092054;28;20036;-73
2022/12/04 05:05:17;;;;;;;47.55;7.32;;;15.10;99.90;;;;;;5092407;28;20062;-73
2022/12/04 05:07:43;;;;;;;39.58;7.18;;;15.00;99.90;;;;;;5090762;28;20035;-72
2022/12/04 05:10:10;;;;;;;50.47;5.97;;;14.90;99.90;;;;;;5092591;28;20024;-73
2022/12/04 05:12:37;;;;;;;48.42;6.30;;;14.90;99.90;;;;;;5092335;28;20270;-73
2022/12/04 05:15:04;;;;;;;50.28;6.85;;;14.90;99.90;;;;;;5092165;28;20035;-73
2022/12/04 05:17:30;;;;;;;49.35;7.03;;;14.90;99.90;;;;;;5092297;28;20093;-72
2022/12/04 05:19:56;;;;;;;45.83;6.33;;;14.90;99.90;;;;;;5092496;28;20024;-73
2022/12/04 05:22:25;;;;;;;39.53;5.65;;;15.00;99.90;;;;;;5092566;28;20035;-72
2022/12/04 05:24:51;;;;;;;38.00;6.30;;;15.00;99.90;;;;;;5091841;28;20069;-72
2022/12/04 05:27:17;;;;;;;43.25;6.20;;;15.10;99.90;;;;;;5092020;28;20047;-73
2022/12/04 05:29:46;;;;;;;68.73;6.97;;;15.00;99.90;;;;;;5092485;28;20035;-73
2022/12/04 05:32:15;;;;;;;46.50;6.20;;;14.90;99.90;;;;;;5092286;28;20356;-73
2022/12/04 05:34:51;;;;;;;46.40;6.65;;;14.90;99.90;;;;;;5091746;28;20063;-73
2022/12/04 05:37:19;;;;;;;32.15;5.60;;;14.90;99.90;;;;;;5092300;28;20106;-73
2022/12/04 05:39:48;;;;;;;36.47;6.68;;;14.80;99.90;;;;;;5091660;28;20024;-73
2022/12/04 05:42:15;;;;;;;47.87;6.83;;;14.70;99.90;;;;;;5092249;28;20379;-73
2022/12/04 05:44:45;;;;;;;35.78;6.53;;;14.70;99.90;;;;;;5092416;28;20269;-73
2022/12/04 05:47:11;;;;;;;42.75;6.38;;;14.60;99.90;;;;;;5091838;28;20021;-73
2022/12/04 05:49:39;;;;;;;30.58;5.80;;;14.50;99.90;;;;;;5091853;28;20454;-72
2022/12/04 05:52:05;;;;;;;32.20;5.40;;;14.60;99.90;;;;;;5092097;28;20108;-73
2022/12/04 05:54:33;;;;;;;47.97;7.38;;;14.50;99.90;;;;;;5091432;28;20399;-73
2022/12/04 05:57:01;;;;;;;42.78;6.20;;;14.50;99.90;;;;;;5092919;28;20085;-68
2022/12/04 05:59:27;;;;;;;49.08;7.03;;;14.50;99.90;;;;;;5094983;28;20471;-67
2022/12/04 06:01:55;;;;;;;43.00;6.90;;;14.40;99.90;;;;;;5096425;28;20063;-72
2022/12/04 06:04:21;;;;;;;38.30;6.32;;;14.40;99.90;;;;;;5095270;28;20168;-73
2022/12/04 06:06:49;;;;;;;34.42;6.38;;;14.40;99.90;;;;;;5095689;28;20145;-74
2022/12/04 06:09:17;;;;;;;34.65;7.00;;;14.40;99.90;;;;;;5094258;28;20025;-73
2022/12/04 06:11:44;;;;;;;33.72;6.88;;;14.50;99.90;;;;;;5095796;28;20032;-74
2022/12/04 06:14:11;;;;;;;;;;;14.50;99.90;;;;;;5095970;28;20056;-74
2022/12/04 06:16:41;;;;;;;44.70;6.75;;;14.50;99.90;;;;;;5095551;28;19904;-74
2022/12/04 06:19:10;;;;;;;41.33;6.68;;;14.50;99.90;;;;;;5095948;28;20032;-74
2022/12/04 06:21:38;;;;;;;40.55;6.13;;;14.50;99.90;;;;;;5095898;28;20016;-75
2022/12/04 06:24:06;;;;;;;40.88;6.82;;;14.50;99.90;;;;;;5095629;28;20063;-74
2022/12/04 06:26:33;;;;;;;45.80;6.70;;;14.60;99.90;;;;;;5095350;28;20502;-74
2022/12/04 06:28:59;;;;;;;36.95;6.20;;;14.60;99.90;;;;;;5095587;28;20125;-74
2022/12/04 06:31:28;;;;;;;43.65;7.80;;;14.60;99.90;;;;;;5095147;28;20391;-74
2022/12/04 06:33:56;;;;;;;37.33;5.90;;;14.70;99.90;;;;;;5093546;28;20024;-74
2022/12/04 06:36:25;;;;;;;41.85;6.30;;;14.70;99.90;;;;;;5094958;28;20073;-73
2022/12/04 06:38:55;;;;;;;41.10;7.13;;;14.80;99.90;;;;;;5095005;28;20020;-74
2022/12/04 06:41:22;;;;;;;43.17;6.70;;;14.80;99.90;;;;;;5095100;28;20083;-74
2022/12/04 06:43:53;;;;;;;42.33;6.38;;;14.90;99.90;;;;;;5095254;28;20095;-74
2022/12/04 06:46:22;;;;;;;34.13;5.90;;;14.90;99.90;;;;;;5095352;28;20375;-74
2022/12/04 06:48:49;;;;;;;37.90;8.00;;;14.90;99.90;;;;;;5093186;28;20024;-74
2022/12/04 06:51:18;;;;;;;58.35;5.70;;;14.90;99.90;;;;;;5094572;28;20027;-74
2022/12/04 06:53:45;;;;;;;48.80;6.43;;;14.90;99.90;;;;;;5076097;28;20352;-74
2022/12/04 06:56:16;;;;;;;44.90;6.20;;;15.00;99.90;;;;;;5094034;28;20133;-74
2022/12/04 06:58:48;;;;;;;33.20;7.05;;;15.00;99.90;;;;;;5093772;28;20057;-73
2022/12/04 07:01:18;;;;;;;37.75;5.45;;;15.00;99.90;;;;;;5090711;28;20103;-76
2022/12/04 07:03:44;;;;;;;46.70;6.10;;;15.10;99.90;;;;;;5076368;28;20060;-77
2022/12/04 07:06:31;;;;;;;31.25;5.70;;;15.20;99.90;;;;;;5094320;28;20020;-76
2022/12/04 07:09:05;;;;;;;33.80;5.22;;;15.40;99.90;;;;;;5094497;28;20112;-77
2022/12/04 07:11:32;;;;;;;39.53;5.38;;;15.90;99.90;;;;;;5094122;28;20058;-76
2022/12/04 07:14:00;;;;;;;38.50;5.70;;;16.20;99.90;;;;;;5094058;28;20032;-77
2022/12/04 07:16:29;;;;;;;38.50;4.82;;;16.50;99.90;;;;;;5094483;28;20036;-77
2022/12/04 07:18:56;;;;;;;36.67;4.82;;;16.80;99.90;;;;;;5078517;28;20031;-76
2022/12/04 07:21:30;;;;;;;38.67;5.32;;;16.90;99.90;;;;;;5073643;28;20473;-77
2022/12/04 07:23:59;;;;;;;29.85;4.88;;;17.20;99.90;;;;;;5074547;28;20020;-76
2022/12/04 07:26:27;;;;;;;35.42;5.45;;;17.20;99.90;;;;;;5080632;28;20111;-76
2022/12/04 07:28:55;;;;;;;34.97;4.38;;;17.40;99.90;;;;;;5077238;28;20104;-76
2022/12/04 07:31:23;;;;;;;34.10;5.15;;;17.70;99.90;;;;;;5074195;28;20032;-77
2022/12/04 07:33:49;;;;;;;36.65;5.15;;;17.80;99.90;;;;;;5073681;28;20103;-77
2022/12/04 07:36:18;;;;;;;34.83;4.88;;;17.40;99.90;;;;;;5073334;28;20151;-77
2022/12/04 07:38:46;;;;;;;42.15;5.53;;;17.40;99.90;;;;;;5073902;28;20031;-77
2022/12/04 07:41:14;;;;;;;49.00;5.30;;;17.20;99.90;;;;;;5073904;28;20040;-76
2022/12/04 07:43:42;;;;;;;43.90;5.45;;;17.10;99.90;;;;;;5079528;28;20107;-77
2022/12/04 07:46:23;;;;;;;33.67;5.07;;;17.10;99.90;;;;;;5074748;28;20440;-77
2022/12/04 07:48:50;;;;;;;26.58;5.25;;;17.20;99.90;;;;;;5074022;28;20067;-77
2022/12/04 07:51:21;;;;;;;37.40;5.47;;;17.30;99.90;;;;;;5073627;28;20028;-77
2022/12/04 07:53:49;;;;;;;39.33;5.60;;;17.50;99.90;;;;;;5073751;28;20059;-77
2022/12/04 07:56:19;;;;;;;27.55;4.85;;;17.40;99.90;;;;;;5072141;28;20048;-76
2022/12/04 07:58:46;;;;;;;49.17;5.10;;;17.50;99.90;;;;;;5073726;28;20029;-77
2022/12/04 08:01:18;;;;;;;44.88;6.88;;;17.50;99.90;;;;;;5073330;28;20051;-74
2022/12/04 08:03:46;;;;;;;39.63;5.18;;;17.60;99.90;;;;;;5073731;28;20461;-74
2022/12/04 08:06:23;;;;;;;32.75;4.60;;;17.70;99.90;;;;;;5073255;28;20030;-74
2022/12/04 08:08:49;;;;;;;36.13;5.03;;;17.80;99.90;;;;;;5073503;28;20024;-74
2022/12/04 08:11:21;;;;;;;46.67;5.30;;;17.70;99.90;;;;;;5073437;28;20422;-74
2022/12/04 08:13:48;;;;;;;39.78;4.60;;;17.80;99.90;;;;;;5073407;28;20466;-74
2022/12/04 08:16:16;;;;;;;36.00;5.60;;;18.00;99.90;;;;;;5073240;28;20431;-74
2022/12/04 08:18:47;;;;;;;46.63;5.93;;;18.10;99.90;;;;;;5072256;28;20067;-74
2022/12/04 08:21:19;;;;;;;32.25;4.95;;;18.20;99.90;;;;;;5072899;28;20361;-74
2022/12/04 08:23:45;;;;;;;51.92;6.10;;;18.20;99.90;;;;;;5071519;28;20021;-73
2022/12/04 08:26:32;;;;;;;45.03;5.32;;;18.40;99.90;;;;;;5073175;28;20033;-73
2022/12/04 08:29:00;;;;;;;39.10;5.50;;;18.50;99.90;;;;;;5075378;28;20101;-74
2022/12/04 08:31:29;;;;;;;45.63;5.28;;;18.50;99.90;;;;;;5093025;28;20123;-73
2022/12/04 08:33:57;;;;;;;46.97;5.68;;;18.60;99.90;;;;;;5073428;28;20063;-76
2022/12/04 08:36:25;;;;;;;37.90;4.82;;;18.80;99.90;;;;;;5072440;28;20495;-70
2022/12/04 08:38:52;;;;;;;48.55;5.07;;;19.20;99.90;;;;;;5074779;28;20070;-73
2022/12/04 08:41:21;;;;;;;37.72;4.65;;;19.40;99.90;;;;;;5072761;28;20059;-73
2022/12/04 08:43:47;;;;;;;44.45;5.88;;;19.40;99.90;;;;;;5072672;28;20108;-73
2022/12/04 08:46:17;;;;;;;36.65;5.50;;;19.60;99.90;;;;;;5072425;28;20048;-73
2022/12/04 08:48:44;;;;;;;38.25;5.63;;;19.60;99.90;;;;;;5072166;28;20078;-73
2022/12/04 08:51:17;;;;;;;38.88;4.65;;;19.50;99.90;;;;;;5072173;28;20062;-73
2022/12/04 08:53:44;;;;;;;33.28;4.88;;;19.60;99.90;;;;;;5072510;28;20077;-75
2022/12/04 08:56:10;;;;;;;42.75;4.53;;;19.70;99.90;;;;;;5071928;28;20047;-75
2022/12/04 08:58:37;;;;;;;43.45;4.47;;;19.80;99.90;;;;;;5072295;28;20137;-75
2022/12/04 09:01:08;;;;;;;43.17;5.32;;;19.80;99.90;;;;;;5104375;28;20361;-75
2022/12/04 09:03:36;;;;;;;43.70;4.93;;;19.70;99.90;;;;;;5071779;28;20375;-75
2022/12/04 09:06:05;;;;;;;47.20;5.25;;;19.80;99.90;;;;;;5071816;28;20077;-75
2022/12/04 09:08:39;;;;;;;38.63;4.35;;;19.70;99.90;;;;;;5075139;28;20024;-75
2022/12/04 09:11:16;;;;;;;47.65;5.80;;;19.80;99.90;;;;;;5075111;28;20021;-75
2022/12/04 09:13:46;;;;;;;53.15;5.70;;;19.80;99.90;;;;;;5072302;28;20063;-75
2022/12/04 09:16:21;;;;;;;36.88;5.28;;;20.00;99.90;;;;;;5070379;28;20075;-75
2022/12/04 09:18:49;;;;;;;37.35;5.55;;;20.10;99.90;;;;;;5071614;28;20021;-75
2022/12/04 09:21:17;;;;;;;43.45;5.40;;;20.30;99.90;;;;;;5072604;28;20051;-74
2022/12/04 09:23:45;;;;;;;41.55;4.40;;;20.30;99.90;;;;;;5090839;28;20028;-75
2022/12/04 09:26:30;;;;;;;36.92;5.00;;;20.50;99.90;;;;;;5092708;28;20024;-74
2022/12/04 09:29:00;;;;;;;48.08;4.57;;;20.50;99.90;;;;;;5093041;28;20024;-75
2022/12/04 09:31:30;;;;;;;41.78;4.78;;;20.50;99.90;;;;;;5093055;28;20017;-75
2022/12/04 09:34:01;;;;;;;44.95;5.22;;;20.40;99.90;;;;;;5093267;28;20024;-75
2022/12/04 09:36:28;;;;;;;40.22;4.60;;;20.50;99.90;;;;;;5092362;28;20528;-75
2022/12/04 09:38:57;;;;;;;38.42;4.38;;;20.60;99.90;;;;;;5092606;28;20384;-75
2022/12/04 09:41:39;;;;;;;48.70;6.05;;;20.50;99.90;;;;;;5092546;28;20361;-75
2022/12/04 09:44:28;;;;;;;33.95;5.00;;;20.40;99.90;;;;;;5092740;28;20036;-75
2022/12/04 09:47:35;;;;;;;40.95;4.38;;;20.40;99.90;;;;;;5092734;28;20050;-76
2022/12/04 09:50:04;;;;;;;43.00;4.82;;;20.50;99.90;;;;;;5072132;28;20025;-76
2022/12/04 09:52:55;;;;;;;40.83;4.70;;;20.70;99.90;;;;;;5071889;28;20115;-75
2022/12/04 09:55:44;;;;;;;41.13;5.28;;;20.70;99.90;;;;;;5072374;28;20033;-74
2022/12/04 09:58:20;;;;;;;45.75;5.25;;;20.80;99.90;;;;;;5082860;28;20089;-74
2022/12/04 10:00:52;;;;;;;39.42;5.35;;;20.80;99.90;;;;;;5085277;28;20484;-75
2022/12/04 10:03:25;;;;;;;44.55;5.53;;;20.80;99.90;;;;;;5069567;28;20039;-76
2022/12/04 10:06:14;;;;;;;55.80;6.25;;;20.90;99.90;;;;;;5071180;28;20429;-75
2022/12/04 10:08:42;;;;;;;52.03;5.07;;;20.90;99.90;;;;;;5071374;28;20029;-75
2022/12/04 10:11:19;;;;;;;45.13;5.50;;;20.80;99.90;;;;;;5069622;28;20057;-76
2022/12/04 10:14:06;;;;;;;55.40;6.00;;;20.70;99.90;;;;;;5069626;28;20032;-76
2022/12/04 10:16:47;;;;;;;44.50;5.47;;;20.60;99.90;;;;;;5070631;28;20392;-75
2022/12/04 10:19:52;;;;;;;42.60;4.70;;;20.70;99.90;;;;;;5074434;28;20056;-74
2022/12/04 10:22:40;;;;;;;31.20;5.15;;;20.80;99.90;;;;;;5090097;28;20036;-76
2022/12/04 10:25:21;;;;;;;32.70;5.18;;;21.10;99.90;;;;;;5089822;28;20062;-75
2022/12/04 10:28:01;;;;;;;42.10;4.88;;;21.40;99.90;;;;;;5089797;28;20024;-75
2022/12/04 10:30:33;;;;;;;34.05;5.60;;;21.50;99.90;;;;;;5088328;28;20036;-70
2022/12/04 10:33:08;;;;;;;51.97;6.28;;;21.40;99.90;;;;;;5089792;28;20071;-76
2022/12/04 10:35:54;;;;;;;38.90;5.32;;;21.40;99.90;;;;;;5088390;28;20051;-72
2022/12/04 10:38:47;;;;;;;35.33;4.75;;;21.50;99.90;;;;;;5089473;28;20047;-78
2022/12/04 10:41:38;;;;;;;36.40;5.05;;;21.30;99.90;;;;;;5089485;28;20044;-76
2022/12/04 10:44:04;;;;;;;41.75;5.57;;;21.30;99.90;;;;;;5092749;28;20111;-73
2022/12/04 10:46:33;;;;;;;44.63;5.55;;;21.30;99.90;;;;;;5091603;28;20586;-80
2022/12/04 10:49:02;;;;;;;52.67;5.93;;;21.50;99.90;;;;;;5092713;28;20028;-78
2022/12/04 10:51:37;;;;;;;57.97;6.47;;;21.50;99.90;;;;;;5092918;28;20383;-76
2022/12/04 10:54:29;;;;;;;57.97;7.03;;;21.60;99.90;;;;;;5093108;28;20477;-77
2022/12/04 10:57:00;;;;;;;55.90;6.38;;;21.60;99.90;;;;;;5077929;28;20032;-75
2022/12/04 10:59:34;;;;;;;44.75;5.65;;;21.50;99.90;;;;;;5092924;28;20032;-76
2022/12/04 11:02:26;;;;;;;33.40;5.05;;;21.50;99.90;;;;;;5092776;28;20024;-74
2022/12/04 11:04:59;;;;;;;69.38;6.82;;;21.50;99.90;;;;;;5092593;28;20024;-73
2022/12/04 11:07:46;;;;;;;46.45;5.68;;;21.50;99.90;;;;;;5093906;28;20093;-74
2022/12/04 11:10:32;;;;;;;46.50;5.30;;;21.50;99.90;;;;;;5093876;28;20038;-74
2022/12/04 11:13:15;;;;;;;37.25;6.07;;;21.40;99.90;;;;;;5093876;28;20027;-75
2022/12/04 11:15:52;;;;;;;39.20;5.13;;;21.40;99.90;;;;;;5093898;28;20054;-75
2022/12/04 11:18:46;;;;;;;43.90;5.10;;;21.40;99.90;;;;;;5093457;28;20086;-75
2022/12/04 11:21:16;;;;;;;45.53;5.00;;;21.10;99.90;;;;;;5093836;28;20127;-75
2022/12/04 11:23:45;;;;;;;38.15;5.05;;;21.00;99.90;;;;;;5091648;28;20495;-75
2022/12/04 11:26:19;;;;;;;46.88;5.60;;;20.90;99.90;;;;;;5092525;28;20053;-75
2022/12/04 11:28:51;;;;;;;46.28;5.22;;;21.00;99.90;;;;;;5093768;28;20035;-75
2022/12/04 11:31:20;;;;;;;46.95;5.63;;;21.10;99.90;;;;;;5091051;28;20337;-75
2022/12/04 11:34:02;;;;;;;55.80;5.00;;;21.10;99.90;;;;;;5091220;28;20156;-73
2022/12/04 11:36:36;;;;;;;39.40;4.82;;;21.10;99.90;;;;;;5073780;28;20090;-77
2022/12/04 11:39:14;;;;;;;42.97;5.40;;;21.20;99.90;;;;;;5090644;28;20048;-74
2022/12/04 11:41:42;;;;;;;40.78;5.18;;;21.10;99.90;;;;;;5091270;28;20084;-75
2022/12/04 11:44:39;;;;;;;52.63;5.10;;;21.20;99.90;;;;;;5089143;28;20082;-76
2022/12/04 11:47:16;;;;;;;46.80;5.32;;;21.40;99.90;;;;;;5029832;28;20078;-76
2022/12/04 11:49:42;;;;;;;33.80;4.85;;;21.20;99.90;;;;;;5030405;28;20103;-77
2022/12/04 11:52:28;;;;;;;55.08;6.35;;;21.20;99.90;;;;;;5030348;28;20251;-76
2022/12/04 11:55:01;;;;;;;39.90;5.53;;;21.40;99.90;;;;;;5030105;28;20036;-79
2022/12/04 11:57:29;;;;;;;45.47;4.38;;;21.50;99.90;;;;;;5030219;28;20456;-79
2022/12/04 12:00:15;;;;;;;39.65;4.47;;;21.30;99.90;;;;;;5030877;28;20196;-75
2022/12/04 12:03:02;;;;;;;45.10;5.82;;;21.40;99.90;;;;;;5043569;28;20029;-77
2022/12/04 12:05:52;;;;;;;48.70;5.55;;;21.30;99.90;;;;;;4991276;28;20077;-77
2022/12/04 12:08:58;;;;;;;35.67;4.53;;;21.30;99.90;;;;;;4991327;28;20543;-77
2022/12/04 12:11:36;;;;;;;52.13;5.55;;;21.30;99.90;;;;;;4990942;28;20026;-77
2022/12/04 12:14:51;;;;;;;47.30;5.32;;;21.30;99.90;;;;;;4990789;28;20044;-77
2022/12/04 12:17:29;;;;;;;39.47;4.47;;;21.00;99.90;;;;;;4933200;29;20138;-76
2022/12/04 12:20:14;;;;;;;54.85;5.38;;;20.90;99.90;;;;;;4933335;29;20043;-76
2022/12/04 12:23:08;;;;;;;56.47;5.13;;;20.50;99.90;;;;;;4936191;29;20435;-75
2022/12/04 12:25:57;;;;;;;49.38;5.45;;;20.50;99.90;;;;;;4967862;28;20031;-77
2022/12/04 12:28:40;;;;;;;41.90;5.60;;;20.60;99.90;;;;;;4968225;28;20051;-76
2022/12/04 12:31:49;;;;;;;50.25;5.75;;;20.60;99.90;;;;;;4952272;29;20035;-76
2022/12/04 12:34:35;;;;;;;49.17;5.45;;;20.70;99.90;;;;;;4968017;28;20212;-76
2022/12/04 12:37:13;;;;;;;46.25;5.72;;;20.60;99.90;;;;;;4965988;28;20150;-77
2022/12/04 12:39:47;;;;;;;47.85;5.38;;;20.40;99.90;;;;;;4952332;29;20452;-77
2022/12/04 12:42:31;;;;;;;48.65;5.75;;;20.40;99.90;;;;;;4986214;28;20159;-76
2022/12/04 12:45:27;;;;;;;41.97;4.80;;;20.50;99.90;;;;;;5049865;28;20106;-77
2022/12/04 12:47:59;;;;;;;53.10;4.95;;;20.60;99.90;;;;;;5036046;28;20037;-76
2022/12/04 12:51:02;;;;;;;40.08;4.63;;;20.70;99.90;;;;;;5049701;28;20025;-76
2022/12/04 12:53:39;;;;;;;38.58;4.25;;;20.60;99.90;;;;;;5049937;28;20032;-76
2022/12/04 12:56:07;;;;;;;38.90;4.15;;;20.40;99.90;;;;;;5091997;28;20063;-76
2022/12/04 12:58:41;;;;;;;41.33;4.28;;;20.50;99.90;;;;;;5092060;28;20020;-76
2022/12/04 13:01:10;;;;;;;46.35;4.45;;;20.70;99.90;;;;;;5091616;28;20388;-77
2022/12/04 13:03:57;;;;;;;47.05;5.43;;;20.70;99.90;;;;;;5091948;28;20024;-77
2022/12/04 13:06:40;;;;;;;46.13;5.28;;;20.70;99.90;;;;;;5091381;28;20482;-76
2022/12/04 13:09:28;;;;;;;37.10;5.63;;;20.80;99.90;;;;;;5091873;28;20035;-77
2022/12/04 13:12:14;;;;;;;54.53;5.22;;;20.80;99.90;;;;;;5091246;28;20034;-77
2022/12/04 13:14:42;;;;;;;39.67;4.68;;;20.80;99.90;;;;;;5091452;28;20028;-75
2022/12/04 13:17:34;;;;;;;40.10;4.70;;;20.70;99.90;;;;;;5090794;28;20039;-76
2022/12/04 13:20:04;;;;;;;41.70;4.90;;;20.80;99.90;;;;;;5091529;28;20020;-76
2022/12/04 13:22:53;;;;;;;33.55;4.40;;;20.80;99.90;;;;;;5091253;28;20035;-76
2022/12/04 13:25:55;;;;;;;39.45;4.40;;;20.90;99.90;;;;;;5091675;28;20079;-76
2022/12/04 13:28:48;;;;;;;36.30;3.83;;;20.90;99.90;;;;;;5071561;28;20137;-75